sensor_id;sensor_type;location;lat;lon;timestamp;pressure;altitude;pressure_sealevel;temperature;humidity
10470;BME280;5282;47.052;15.458;2022-11-20T00:00:19;97068.84;;;1.14;100.00
10470;BME280;5282;47.052;15.458;2022-11-20T00:02:46;97066.31;;;0.90;100.00
10470;BME280;5282;47.052;15.458;2022-11-20T00:05:13;97065.94;;;0.95;100.00
10470;BME280;5282;47.052;15.458;2022-11-20T00:07:40;97070.41;;;1.05;100.00
10470;BME280;5282;47.052;15.458;2022-11-20T00:10:08;97071.34;;;0.93;100.00
10470;BME280;5282;47.052;15.458;2022-11-20T00:12:35;97063.88;;;0.75;100.00
10470;BME280;5282;47.052;15.458;2022-11-20T00:15:02;97068.47;;;0.96;100.00
10470;BME280;5282;47.052;15.458;2022-11-20T00:17:31;97058.47;;;1.00;100.00
10470;BME280;5282;47.052;15.458;2022-11-20T00:19:58;97066.19;;;1.03;100.00
10470;BME280;5282;47.052;15.458;2022-11-20T00:22:25;97077.03;;;1.11;100.00
10470;BME280;5282;47.052;15.458;2022-11-20T00:24:52;97078.38;;;1.17;100.00
10470;BME280;5282;47.052;15.458;2022-11-20T00:27:19;97079.94;;;1.42;100.00
10470;BME280;5282;47.052;15.458;2022-11-20T00:29:46;97099.13;;;1.57;100.00
10470;BME280;5282;47.052;15.458;2022-11-20T00:32:13;97087.88;;;1.65;100.00
10470;BME280;5282;47.052;15.458;2022-11-20T00:34:41;97094.38;;;1.72;100.00
10470;BME280;5282;47.052;15.458;2022-11-20T00:37:09;97102.84;;;1.77;100.00
10470;BME280;5282;47.052;15.458;2022-11-20T00:39:36;97098.72;;;1.84;100.00
10470;BME280;5282;47.052;15.458;2022-11-20T00:42:03;97103.66;;;1.89;100.00
10470;BME280;5282;47.052;15.458;2022-11-20T00:44:30;97098.34;;;1.89;100.00
10470;BME280;5282;47.052;15.458;2022-11-20T00:46:56;97091.13;;;1.68;100.00
10470;BME280;5282;47.052;15.458;2022-11-20T00:49:23;97095.34;;;1.71;100.00
10470;BME280;5282;47.052;15.458;2022-11-20T00:51:54;97091.22;;;1.90;100.00
10470;BME280;5282;47.052;15.458;2022-11-20T00:54:21;97097.03;;;1.83;100.00
10470;BME280;5282;47.052;15.458;2022-11-20T00:56:48;97098.44;;;1.99;100.00
10470;BME280;5282;47.052;15.458;2022-11-20T00:59:15;97102.66;;;2.02;100.00
10470;BME280;5282;47.052;15.458;2022-11-20T01:01:41;97105.31;;;2.02;100.00
10470;BME280;5282;47.052;15.458;2022-11-20T01:04:09;97116.91;;;2.00;100.00
10470;BME280;5282;47.052;15.458;2022-11-20T01:06:38;97116.06;;;2.00;100.00
10470;BME280;5282;47.052;15.458;2022-11-20T01:09:09;97109.84;;;1.78;100.00
10470;BME280;5282;47.052;15.458;2022-11-20T01:11:41;97109.13;;;1.53;100.00
10470;BME280;5282;47.052;15.458;2022-11-20T01:14:12;97112.97;;;1.49;100.00
10470;BME280;5282;47.052;15.458;2022-11-20T01:16:41;97112.13;;;1.83;100.00
10470;BME280;5282;47.052;15.458;2022-11-20T01:19:11;97106.88;;;1.93;100.00
10470;BME280;5282;47.052;15.458;2022-11-20T01:21:40;97105.19;;;1.92;100.00
10470;BME280;5282;47.052;15.458;2022-11-20T01:24:11;97104.47;;;2.01;100.00
10470;BME280;5282;47.052;15.458;2022-11-20T01:26:40;97099.88;;;2.03;100.00
10470;BME280;5282;47.052;15.458;2022-11-20T01:29:12;97105.84;;;1.84;100.00
10470;BME280;5282;47.052;15.458;2022-11-20T01:31:42;97103.28;;;1.94;100.00
10470;BME280;5282;47.052;15.458;2022-11-20T01:34:10;97106.88;;;1.93;100.00
10470;BME280;5282;47.052;15.458;2022-11-20T01:36:38;97103.56;;;1.68;100.00
10470;BME280;5282;47.052;15.458;2022-11-20T01:39:09;97109.94;;;1.65;100.00
10470;BME280;5282;47.052;15.458;2022-11-20T01:41:37;97106.22;;;1.57;100.00
10470;BME280;5282;47.052;15.458;2022-11-20T01:44:39;97107.88;;;1.80;100.00
10470;BME280;5282;47.052;15.458;2022-11-20T01:47:12;97105.94;;;1.94;100.00
10470;BME280;5282;47.052;15.458;2022-11-20T01:49:43;97107.00;;;2.03;100.00
10470;BME280;5282;47.052;15.458;2022-11-20T01:52:16;97107.47;;;2.08;100.00
10470;BME280;5282;47.052;15.458;2022-11-20T01:54:48;97103.97;;;2.07;100.00
10470;BME280;5282;47.052;15.458;2022-11-20T01:57:22;97101.59;;;1.93;100.00
10470;BME280;5282;47.052;15.458;2022-11-20T01:59:57;97100.53;;;1.61;100.00
10470;BME280;5282;47.052;15.458;2022-11-20T02:02:26;97101.84;;;1.67;100.00
10470;BME280;5282;47.052;15.458;2022-11-20T02:05:04;97098.22;;;1.79;100.00
10470;BME280;5282;47.052;15.458;2022-11-20T02:07:40;97090.97;;;1.93;100.00
10470;BME280;5282;47.052;15.458;2022-11-20T02:10:09;97086.25;;;1.85;100.00
10470;BME280;5282;47.052;15.458;2022-11-20T02:12:41;97098.25;;;1.57;100.00
10470;BME280;5282;47.052;15.458;2022-11-20T02:15:25;97087.97;;;1.75;100.00
10470;BME280;5282;47.052;15.458;2022-11-20T02:17:55;97091.09;;;1.91;100.00
10470;BME280;5282;47.052;15.458;2022-11-20T02:20:23;97092.91;;;1.79;100.00
10470;BME280;5282;47.052;15.458;2022-11-20T02:22:54;97086.50;;;1.93;100.00
10470;BME280;5282;47.052;15.458;2022-11-20T02:25:25;97090.59;;;1.97;100.00
10470;BME280;5282;47.052;15.458;2022-11-20T02:27:53;97087.09;;;1.97;100.00
10470;BME280;5282;47.052;15.458;2022-11-20T02:30:21;97081.53;;;2.00;100.00
10470;BME280;5282;47.052;15.458;2022-11-20T02:32:47;97083.94;;;2.03;100.00
10470;BME280;5282;47.052;15.458;2022-11-20T02:35:39;97091.28;;;2.11;100.00
10470;BME280;5282;47.052;15.458;2022-11-20T02:38:07;97087.78;;;2.10;100.00
10470;BME280;5282;47.052;15.458;2022-11-20T02:40:36;97076.94;;;2.02;100.00
10470;BME280;5282;47.052;15.458;2022-11-20T02:43:06;97086.25;;;1.85;100.00
10470;BME280;5282;47.052;15.458;2022-11-20T02:45:33;97082.06;;;1.71;100.00
10470;BME280;5282;47.052;15.458;2022-11-20T02:47:59;97082.03;;;1.94;100.00
10470;BME280;5282;47.052;15.458;2022-11-20T02:50:26;97074.56;;;1.99;100.00
10470;BME280;5282;47.052;15.458;2022-11-20T02:52:54;97069.25;;;1.99;100.00
10470;BME280;5282;47.052;15.458;2022-11-20T02:55:21;97067.59;;;1.75;100.00
10470;BME280;5282;47.052;15.458;2022-11-20T02:57:49;97064.31;;;1.94;100.00
10470;BME280;5282;47.052;15.458;2022-11-20T03:00:17;97051.63;;;1.98;100.00
10470;BME280;5282;47.052;15.458;2022-11-20T03:02:45;97045.78;;;2.04;100.00
10470;BME280;5282;47.052;15.458;2022-11-20T03:05:12;97044.09;;;2.03;100.00
10470;BME280;5282;47.052;15.458;2022-11-20T03:07:40;97045.13;;;1.79;100.00
10470;BME280;5282;47.052;15.458;2022-11-20T03:10:07;97058.78;;;1.75;100.00
10470;BME280;5282;47.052;15.458;2022-11-20T03:12:35;97056.03;;;1.65;100.00
10470;BME280;5282;47.052;15.458;2022-11-20T03:15:04;97067.75;;;1.51;100.00
10470;BME280;5282;47.052;15.458;2022-11-20T03:17:33;97074.28;;;1.47;100.00
10470;BME280;5282;47.052;15.458;2022-11-20T03:20:00;97069.78;;;1.70;100.00
10470;BME280;5282;47.052;15.458;2022-11-20T03:22:28;97067.69;;;1.85;100.00
10470;BME280;5282;47.052;15.458;2022-11-20T03:24:55;97066.25;;;1.81;100.00
10470;BME280;5282;47.052;15.458;2022-11-20T03:27:23;97064.69;;;1.90;100.00
10470;BME280;5282;47.052;15.458;2022-11-20T03:29:50;97060.16;;;2.02;100.00
10470;BME280;5282;47.052;15.458;2022-11-20T03:32:18;97064.50;;;2.03;100.00
10470;BME280;5282;47.052;15.458;2022-11-20T03:34:45;97061.72;;;2.04;100.00
10470;BME280;5282;47.052;15.458;2022-11-20T03:37:12;97061.41;;;1.86;100.00
10470;BME280;5282;47.052;15.458;2022-11-20T03:39:39;97061.00;;;2.02;100.00
10470;BME280;5282;47.052;15.458;2022-11-20T03:42:07;97050.84;;;2.07;100.00
10470;BME280;5282;47.052;15.458;2022-11-20T03:44:54;97054.22;;;2.09;100.00
10470;BME280;5282;47.052;15.458;2022-11-20T03:47:23;97058.00;;;2.07;100.00
10470;BME280;5282;47.052;15.458;2022-11-20T03:49:50;97060.38;;;2.10;100.00
10470;BME280;5282;47.052;15.458;2022-11-20T03:52:17;97052.53;;;2.08;100.00
10470;BME280;5282;47.052;15.458;2022-11-20T03:54:44;97050.63;;;2.10;100.00
10470;BME280;5282;47.052;15.458;2022-11-20T03:57:11;97054.47;;;2.06;100.00
10470;BME280;5282;47.052;15.458;2022-11-20T03:59:38;97054.72;;;2.03;100.00
10470;BME280;5282;47.052;15.458;2022-11-20T04:02:05;97051.56;;;2.09;100.00
10470;BME280;5282;47.052;15.458;2022-11-20T04:04:36;97046.13;;;2.11;100.00
10470;BME280;5282;47.052;15.458;2022-11-20T04:07:03;97045.09;;;1.91;100.00
10470;BME280;5282;47.052;15.458;2022-11-20T04:09:29;97038.53;;;2.06;100.00
10470;BME280;5282;47.052;15.458;2022-11-20T04:11:56;97038.63;;;2.16;100.00
10470;BME280;5282;47.052;15.458;2022-11-20T04:14:23;97039.47;;;2.16;100.00
10470;BME280;5282;47.052;15.458;2022-11-20T04:16:50;97039.72;;;2.13;100.00
10470;BME280;5282;47.052;15.458;2022-11-20T04:19:18;97036.47;;;2.10;100.00
10470;BME280;5282;47.052;15.458;2022-11-20T04:21:46;97043.09;;;1.83;100.00
10470;BME280;5282;47.052;15.458;2022-11-20T04:24:13;97039.59;;;1.82;100.00
10470;BME280;5282;47.052;15.458;2022-11-20T04:26:40;97037.25;;;2.00;100.00
10470;BME280;5282;47.052;15.458;2022-11-20T04:29:10;97032.84;;;2.11;100.00
10470;BME280;5282;47.052;15.458;2022-11-20T04:31:39;97020.88;;;2.16;100.00
10470;BME280;5282;47.052;15.458;2022-11-20T04:34:07;97020.44;;;2.11;100.00
10470;BME280;5282;47.052;15.458;2022-11-20T04:36:34;97021.13;;;2.13;100.00
10470;BME280;5282;47.052;15.458;2022-11-20T04:39:04;97023.28;;;2.20;100.00
10470;BME280;5282;47.052;15.458;2022-11-20T04:41:34;97014.59;;;2.18;100.00
10470;BME280;5282;47.052;15.458;2022-11-20T04:44:02;97013.50;;;1.88;100.00
10470;BME280;5282;47.052;15.458;2022-11-20T04:46:31;97013.25;;;1.91;100.00
10470;BME280;5282;47.052;15.458;2022-11-20T04:48:59;97005.00;;;2.05;100.00
10470;BME280;5282;47.052;15.458;2022-11-20T04:51:26;97009.81;;;2.11;100.00
10470;BME280;5282;47.052;15.458;2022-11-20T04:53:53;97007.25;;;2.10;100.00
10470;BME280;5282;47.052;15.458;2022-11-20T04:56:21;97005.56;;;2.09;100.00
10470;BME280;5282;47.052;15.458;2022-11-20T04:58:49;97007.41;;;2.08;100.00
10470;BME280;5282;47.052;15.458;2022-11-20T05:01:18;97005.91;;;2.15;100.00
10470;BME280;5282;47.052;15.458;2022-11-20T05:03:47;97003.25;;;2.15;100.00
10470;BME280;5282;47.052;15.458;2022-11-20T05:06:16;97006.69;;;2.06;100.00
10470;BME280;5282;47.052;15.458;2022-11-20T05:08:43;97006.34;;;1.56;100.00
10470;BME280;5282;47.052;15.458;2022-11-20T05:11:12;97010.41;;;1.71;100.00
10470;BME280;5282;47.052;15.458;2022-11-20T05:13:40;97006.63;;;1.85;100.00
10470;BME280;5282;47.052;15.458;2022-11-20T05:16:10;97010.34;;;1.94;100.00
10470;BME280;5282;47.052;15.458;2022-11-20T05:18:37;96999.47;;;1.97;100.00
10470;BME280;5282;47.052;15.458;2022-11-20T05:21:06;97006.59;;;1.96;100.00
10470;BME280;5282;47.052;15.458;2022-11-20T05:23:33;97012.50;;;2.00;100.00
10470;BME280;5282;47.052;15.458;2022-11-20T05:26:01;97008.16;;;1.99;100.00
10470;BME280;5282;47.052;15.458;2022-11-20T05:28:30;97006.91;;;2.03;100.00
10470;BME280;5282;47.052;15.458;2022-11-20T05:31:05;97005.47;;;2.10;100.00
10470;BME280;5282;47.052;15.458;2022-11-20T05:33:32;97011.03;;;2.07;100.00
10470;BME280;5282;47.052;15.458;2022-11-20T05:36:00;97018.03;;;2.08;100.00
10470;BME280;5282;47.052;15.458;2022-11-20T05:38:27;97005.84;;;2.06;100.00
10470;BME280;5282;47.052;15.458;2022-11-20T05:40:54;97016.47;;;2.06;100.00
10470;BME280;5282;47.052;15.458;2022-11-20T05:43:21;97016.13;;;1.99;100.00
10470;BME280;5282;47.052;15.458;2022-11-20T05:45:54;97024.03;;;1.78;100.00
10470;BME280;5282;47.052;15.458;2022-11-20T05:48:22;97024.72;;;1.91;100.00
10470;BME280;5282;47.052;15.458;2022-11-20T05:50:49;97031.47;;;1.95;100.00
10470;BME280;5282;47.052;15.458;2022-11-20T05:53:16;97029.50;;;1.97;100.00
10470;BME280;5282;47.052;15.458;2022-11-20T05:55:43;97031.47;;;1.95;100.00
10470;BME280;5282;47.052;15.458;2022-11-20T05:58:10;97033.34;;;1.72;100.00
10470;BME280;5282;47.052;15.458;2022-11-20T06:00:37;97040.81;;;1.78;100.00
10470;BME280;5282;47.052;15.458;2022-11-20T06:03:04;97037.13;;;1.91;100.00
10470;BME280;5282;47.052;15.458;2022-11-20T06:05:33;97034.25;;;1.94;100.00
10470;BME280;5282;47.052;15.458;2022-11-20T06:08:00;97036.53;;;1.87;100.00
10470;BME280;5282;47.052;15.458;2022-11-20T06:10:27;97036.16;;;1.92;100.00
10470;BME280;5282;47.052;15.458;2022-11-20T06:12:57;97032.16;;;1.97;100.00
10470;BME280;5282;47.052;15.458;2022-11-20T06:15:24;97035.78;;;1.96;100.00
10470;BME280;5282;47.052;15.458;2022-11-20T06:17:52;97035.94;;;1.95;100.00
10470;BME280;5282;47.052;15.458;2022-11-20T06:20:19;97042.34;;;1.92;100.00
10470;BME280;5282;47.052;15.458;2022-11-20T06:22:47;97048.25;;;1.96;100.00
10470;BME280;5282;47.052;15.458;2022-11-20T06:25:14;97045.81;;;1.93;100.00
10470;BME280;5282;47.052;15.458;2022-11-20T06:27:41;97049.34;;;1.93;100.00
10470;BME280;5282;47.052;15.458;2022-11-20T06:30:09;97048.03;;;1.88;100.00
10470;BME280;5282;47.052;15.458;2022-11-20T06:32:36;97048.75;;;1.90;100.00
10470;BME280;5282;47.052;15.458;2022-11-20T06:35:04;97052.97;;;1.92;100.00
10470;BME280;5282;47.052;15.458;2022-11-20T06:37:31;97053.31;;;1.99;100.00
10470;BME280;5282;47.052;15.458;2022-11-20T06:39:59;97058.34;;;2.02;100.00
10470;BME280;5282;47.052;15.458;2022-11-20T06:42:28;97067.31;;;2.01;100.00
10470;BME280;5282;47.052;15.458;2022-11-20T06:44:55;97065.31;;;1.82;100.00
10470;BME280;5282;47.052;15.458;2022-11-20T06:47:23;97076.19;;;1.67;100.00
10470;BME280;5282;47.052;15.458;2022-11-20T06:49:50;97077.13;;;1.78;100.00
10470;BME280;5282;47.052;15.458;2022-11-20T06:52:17;97088.28;;;1.49;100.00
10470;BME280;5282;47.052;15.458;2022-11-20T06:54:44;97074.13;;;1.60;100.00
10470;BME280;5282;47.052;15.458;2022-11-20T06:57:12;97076.75;;;1.82;100.00
10470;BME280;5282;47.052;15.458;2022-11-20T06:59:39;97074.06;;;1.94;100.00
10470;BME280;5282;47.052;15.458;2022-11-20T07:02:09;97072.63;;;2.01;100.00
10470;BME280;5282;47.052;15.458;2022-11-20T07:04:36;97074.81;;;1.84;100.00
10470;BME280;5282;47.052;15.458;2022-11-20T07:07:03;97071.31;;;1.95;100.00
10470;BME280;5282;47.052;15.458;2022-11-20T07:09:30;97076.81;;;2.04;100.00
10470;BME280;5282;47.052;15.458;2022-11-20T07:11:57;97083.72;;;1.95;100.00
10470;BME280;5282;47.052;15.458;2022-11-20T07:14:25;97090.75;;;1.84;100.00
10470;BME280;5282;47.052;15.458;2022-11-20T07:16:52;97084.50;;;1.63;100.00
10470;BME280;5282;47.052;15.458;2022-11-20T07:19:19;97091.50;;;1.64;100.00
10470;BME280;5282;47.052;15.458;2022-11-20T07:21:47;97093.41;;;1.84;100.00
10470;BME280;5282;47.052;15.458;2022-11-20T07:24:14;97096.31;;;1.70;100.00
10470;BME280;5282;47.052;15.458;2022-11-20T07:26:41;97094.63;;;1.69;100.00
10470;BME280;5282;47.052;15.458;2022-11-20T07:29:08;97104.03;;;1.73;100.00
10470;BME280;5282;47.052;15.458;2022-11-20T07:31:36;97098.94;;;1.93;100.00
10470;BME280;5282;47.052;15.458;2022-11-20T07:34:03;97106.25;;;2.12;100.00
10470;BME280;5282;47.052;15.458;2022-11-20T07:36:30;97103.41;;;1.92;100.00
10470;BME280;5282;47.052;15.458;2022-11-20T07:38:57;97101.09;;;1.99;100.00
10470;BME280;5282;47.052;15.458;2022-11-20T07:41:24;97102.75;;;2.11;100.00
10470;BME280;5282;47.052;15.458;2022-11-20T07:43:51;97101.81;;;2.12;100.00
10470;BME280;5282;47.052;15.458;2022-11-20T07:46:18;97096.19;;;2.27;100.00
10470;BME280;5282;47.052;15.458;2022-11-20T07:48:46;97101.00;;;2.33;100.00
10470;BME280;5282;47.052;15.458;2022-11-20T07:51:13;97095.44;;;2.25;100.00
10470;BME280;5282;47.052;15.458;2022-11-20T07:53:40;97103.63;;;2.44;100.00
10470;BME280;5282;47.052;15.458;2022-11-20T07:56:07;97106.28;;;2.44;100.00
10470;BME280;5282;47.052;15.458;2022-11-20T07:58:34;97106.72;;;2.50;100.00
10470;BME280;5282;47.052;15.458;2022-11-20T08:01:04;97109.97;;;2.53;100.00
10470;BME280;5282;47.052;15.458;2022-11-20T08:03:31;97110.63;;;2.45;100.00
10470;BME280;5282;47.052;15.458;2022-11-20T08:06:00;97112.16;;;2.48;100.00
10470;BME280;5282;47.052;15.458;2022-11-20T08:08:27;97118.16;;;2.61;100.00
10470;BME280;5282;47.052;15.458;2022-11-20T08:10:56;97119.56;;;2.66;100.00
10470;BME280;5282;47.052;15.458;2022-11-20T08:13:43;97117.03;;;2.64;100.00
10470;BME280;5282;47.052;15.458;2022-11-20T08:16:28;97118.28;;;2.81;100.00
10470;BME280;5282;47.052;15.458;2022-11-20T08:18:57;97120.56;;;2.86;100.00
10470;BME280;5282;47.052;15.458;2022-11-20T08:21:26;97121.13;;;2.89;100.00
10470;BME280;5282;47.052;15.458;2022-11-20T08:23:53;97122.97;;;2.89;100.00
10470;BME280;5282;47.052;15.458;2022-11-20T08:26:20;97127.44;;;2.88;100.00
10470;BME280;5282;47.052;15.458;2022-11-20T08:28:48;97122.09;;;2.88;100.00
10470;BME280;5282;47.052;15.458;2022-11-20T08:31:15;97123.22;;;2.65;100.00
10470;BME280;5282;47.052;15.458;2022-11-20T08:33:41;97126.19;;;2.50;100.00
10470;BME280;5282;47.052;15.458;2022-11-20T08:36:08;97136.03;;;2.27;100.00
10470;BME280;5282;47.052;15.458;2022-11-20T08:38:37;97140.78;;;2.56;100.00
10470;BME280;5282;47.052;15.458;2022-11-20T08:41:05;97148.91;;;2.75;100.00
10470;BME280;5282;47.052;15.458;2022-11-20T08:43:55;97149.38;;;2.81;100.00
10470;BME280;5282;47.052;15.458;2022-11-20T08:46:23;97146.97;;;2.77;100.00
10470;BME280;5282;47.052;15.458;2022-11-20T08:48:50;97146.81;;;2.79;100.00
10470;BME280;5282;47.052;15.458;2022-11-20T08:51:18;97152.09;;;2.90;100.00
10470;BME280;5282;47.052;15.458;2022-11-20T08:53:47;97152.22;;;2.89;100.00
10470;BME280;5282;47.052;15.458;2022-11-20T08:56:17;97145.94;;;2.90;100.00
10470;BME280;5282;47.052;15.458;2022-11-20T08:58:44;97149.19;;;2.93;100.00
10470;BME280;5282;47.052;15.458;2022-11-20T09:01:11;97148.94;;;2.97;100.00
10470;BME280;5282;47.052;15.458;2022-11-20T09:03:38;97153.00;;;2.80;100.00
10470;BME280;5282;47.052;15.458;2022-11-20T09:06:06;97152.41;;;2.97;100.00
10470;BME280;5282;47.052;15.458;2022-11-20T09:08:34;97155.31;;;2.94;100.00
10470;BME280;5282;47.052;15.458;2022-11-20T09:11:03;97161.41;;;2.85;100.00
10470;BME280;5282;47.052;15.458;2022-11-20T09:13:32;97158.97;;;2.93;100.00
10470;BME280;5282;47.052;15.458;2022-11-20T09:16:01;97147.28;;;3.05;100.00
10470;BME280;5282;47.052;15.458;2022-11-20T09:18:29;97150.72;;;3.17;100.00
10470;BME280;5282;47.052;15.458;2022-11-20T09:20:57;97144.28;;;3.20;100.00
10470;BME280;5282;47.052;15.458;2022-11-20T09:23:25;97145.09;;;3.11;100.00
10470;BME280;5282;47.052;15.458;2022-11-20T09:25:53;97150.66;;;3.07;100.00
10470;BME280;5282;47.052;15.458;2022-11-20T09:28:22;97150.66;;;3.29;100.00
10470;BME280;5282;47.052;15.458;2022-11-20T09:30:49;97140.34;;;3.35;100.00
10470;BME280;5282;47.052;15.458;2022-11-20T09:33:16;97150.16;;;3.14;100.00
10470;BME280;5282;47.052;15.458;2022-11-20T09:35:43;97141.88;;;3.38;100.00
10470;BME280;5282;47.052;15.458;2022-11-20T09:38:10;97135.44;;;3.40;100.00
10470;BME280;5282;47.052;15.458;2022-11-20T09:40:40;97139.72;;;3.53;100.00
10470;BME280;5282;47.052;15.458;2022-11-20T09:43:16;97142.44;;;3.42;100.00
10470;BME280;5282;47.052;15.458;2022-11-20T09:45:56;97144.53;;;3.59;100.00
10470;BME280;5282;47.052;15.458;2022-11-20T09:48:35;97134.19;;;3.66;100.00
10470;BME280;5282;47.052;15.458;2022-11-20T09:51:13;97122.44;;;3.78;100.00
10470;BME280;5282;47.052;15.458;2022-11-20T09:53:48;97112.94;;;3.85;100.00
10470;BME280;5282;47.052;15.458;2022-11-20T09:56:20;97116.16;;;3.89;100.00
10470;BME280;5282;47.052;15.458;2022-11-20T09:58:49;97131.41;;;3.77;100.00
10470;BME280;5282;47.052;15.458;2022-11-20T10:01:19;97132.16;;;3.89;100.00
10470;BME280;5282;47.052;15.458;2022-11-20T10:03:54;97126.41;;;3.84;100.00
10470;BME280;5282;47.052;15.458;2022-11-20T10:06:29;97118.34;;;4.15;100.00
10470;BME280;5282;47.052;15.458;2022-11-20T10:09:03;97122.84;;;4.24;100.00
10470;BME280;5282;47.052;15.458;2022-11-20T10:11:39;97111.34;;;4.43;100.00
10470;BME280;5282;47.052;15.458;2022-11-20T10:14:18;97112.91;;;4.66;100.00
10470;BME280;5282;47.052;15.458;2022-11-20T10:16:54;97109.09;;;4.98;100.00
10470;BME280;5282;47.052;15.458;2022-11-20T10:19:41;97103.19;;;5.04;100.00
10470;BME280;5282;47.052;15.458;2022-11-20T10:22:19;97098.09;;;5.20;100.00
10470;BME280;5282;47.052;15.458;2022-11-20T10:24:55;97098.19;;;5.29;100.00
10470;BME280;5282;47.052;15.458;2022-11-20T10:27:39;97096.34;;;5.39;100.00
10470;BME280;5282;47.052;15.458;2022-11-20T10:30:12;97096.06;;;5.42;100.00
10470;BME280;5282;47.052;15.458;2022-11-20T10:32:43;97084.66;;;5.50;100.00
10470;BME280;5282;47.052;15.458;2022-11-20T10:35:20;97092.41;;;5.71;100.00
10470;BME280;5282;47.052;15.458;2022-11-20T10:37:51;97087.00;;;5.91;100.00
10470;BME280;5282;47.052;15.458;2022-11-20T10:40:25;97080.78;;;6.00;100.00
10470;BME280;5282;47.052;15.458;2022-11-20T10:42:57;97087.75;;;6.29;100.00
10470;BME280;5282;47.052;15.458;2022-11-20T10:45:36;97086.69;;;6.22;100.00
10470;BME280;5282;47.052;15.458;2022-11-20T10:48:15;97085.63;;;6.14;100.00
10470;BME280;5282;47.052;15.458;2022-11-20T10:50:57;97095.88;;;6.37;100.00
10470;BME280;5282;47.052;15.458;2022-11-20T10:53:52;97090.69;;;6.54;100.00
10470;BME280;5282;47.052;15.458;2022-11-20T10:56:24;97088.00;;;6.72;100.00
10470;BME280;5282;47.052;15.458;2022-11-20T10:59:32;97079.44;;;6.68;100.00
10470;BME280;5282;47.052;15.458;2022-11-20T11:02:15;97080.84;;;6.54;100.00
10470;BME280;5282;47.052;15.458;2022-11-20T11:04:45;97075.09;;;6.67;100.00
10470;BME280;5282;47.052;15.458;2022-11-20T11:07:20;97088.22;;;6.60;100.00
10470;BME280;5282;47.052;15.458;2022-11-20T11:09:49;97082.50;;;6.55;100.00
10470;BME280;5282;47.052;15.458;2022-11-20T11:12:16;97079.75;;;6.47;100.00
10470;BME280;5282;47.052;15.458;2022-11-20T11:14:45;97077.31;;;6.54;100.00
10470;BME280;5282;47.052;15.458;2022-11-20T11:17:22;97083.03;;;5.67;100.00
10470;BME280;5282;47.052;15.458;2022-11-20T11:20:03;97084.78;;;5.48;100.00
10470;BME280;5282;47.052;15.458;2022-11-20T11:22:32;97077.84;;;5.28;100.00
10470;BME280;5282;47.052;15.458;2022-11-20T11:25:00;97081.84;;;5.79;100.00
10470;BME280;5282;47.052;15.458;2022-11-20T11:27:27;97077.59;;;5.86;100.00
10470;BME280;5282;47.052;15.458;2022-11-20T11:30:15;97080.56;;;6.11;100.00
10470;BME280;5282;47.052;15.458;2022-11-20T11:32:43;97076.59;;;6.15;100.00
10470;BME280;5282;47.052;15.458;2022-11-20T11:35:22;97077.47;;;6.34;100.00
10470;BME280;5282;47.052;15.458;2022-11-20T11:37:50;97075.84;;;6.41;100.00
10470;BME280;5282;47.052;15.458;2022-11-20T11:40:22;97069.03;;;6.47;100.00
10470;BME280;5282;47.052;15.458;2022-11-20T11:42:58;97078.06;;;6.64;100.00
10470;BME280;5282;47.052;15.458;2022-11-20T11:45:27;97066.19;;;6.85;100.00
10470;BME280;5282;47.052;15.458;2022-11-20T11:47:56;97064.19;;;6.87;100.00
10470;BME280;5282;47.052;15.458;2022-11-20T11:50:26;97054.53;;;7.12;100.00
10470;BME280;5282;47.052;15.458;2022-11-20T11:53:00;97057.13;;;7.30;100.00
10470;BME280;5282;47.052;15.458;2022-11-20T11:55:31;97056.50;;;7.10;100.00
10470;BME280;5282;47.052;15.458;2022-11-20T11:58:09;97056.81;;;7.33;100.00
10470;BME280;5282;47.052;15.458;2022-11-20T12:00:40;97062.94;;;7.52;100.00
10470;BME280;5282;47.052;15.458;2022-11-20T12:03:14;97058.25;;;7.54;100.00
10470;BME280;5282;47.052;15.458;2022-11-20T12:05:48;97057.91;;;7.49;100.00
10470;BME280;5282;47.052;15.458;2022-11-20T12:08:21;97053.63;;;7.64;100.00
10470;BME280;5282;47.052;15.458;2022-11-20T12:10:54;97053.28;;;7.67;100.00
10470;BME280;5282;47.052;15.458;2022-11-20T12:13:44;97056.81;;;7.68;100.00
10470;BME280;5282;47.052;15.458;2022-11-20T12:16:14;97057.66;;;7.77;100.00
10470;BME280;5282;47.052;15.458;2022-11-20T12:18:42;97059.72;;;7.83;100.00
10470;BME280;5282;47.052;15.458;2022-11-20T12:21:18;97057.66;;;7.68;100.00
10470;BME280;5282;47.052;15.458;2022-11-20T12:24:13;97054.94;;;7.60;100.00
10470;BME280;5282;47.052;15.458;2022-11-20T12:26:57;97052.50;;;7.40;100.00
10470;BME280;5282;47.052;15.458;2022-11-20T12:29:37;97050.41;;;7.61;100.00
10470;BME280;5282;47.052;15.458;2022-11-20T12:32:27;97051.53;;;7.50;100.00
10470;BME280;5282;47.052;15.458;2022-11-20T12:35:05;97054.91;;;7.52;100.00
10470;BME280;5282;47.052;15.458;2022-11-20T12:37:44;97050.88;;;7.91;100.00
10470;BME280;5282;47.052;15.458;2022-11-20T12:40:27;97055.91;;;7.94;100.00
10470;BME280;5282;47.052;15.458;2022-11-20T12:43:01;97052.06;;;7.53;100.00
10470;BME280;5282;47.052;15.458;2022-11-20T12:46:16;97042.47;;;7.85;100.00
10470;BME280;5282;47.052;15.458;2022-11-20T12:48:53;97044.72;;;8.15;100.00
10470;BME280;5282;47.052;15.458;2022-11-20T12:51:34;97036.91;;;8.38;100.00
10470;BME280;5282;47.052;15.458;2022-11-20T12:54:29;97033.94;;;8.49;100.00
10470;BME280;5282;47.052;15.458;2022-11-20T12:57:05;97028.06;;;8.54;100.00
10470;BME280;5282;47.052;15.458;2022-11-20T12:59:52;97034.59;;;8.60;100.00
10470;BME280;5282;47.052;15.458;2022-11-20T13:02:27;97035.06;;;8.80;100.00
10470;BME280;5282;47.052;15.458;2022-11-20T13:05:07;97038.28;;;8.84;100.00
10470;BME280;5282;47.052;15.458;2022-11-20T13:07:40;97042.44;;;8.45;100.00
10470;BME280;5282;47.052;15.458;2022-11-20T13:10:15;97036.84;;;8.13;100.00
10470;BME280;5282;47.052;15.458;2022-11-20T13:12:46;97045.00;;;8.79;100.00
10470;BME280;5282;47.052;15.458;2022-11-20T13:15:33;97032.38;;;9.05;100.00
10470;BME280;5282;47.052;15.458;2022-11-20T13:18:04;97024.00;;;9.08;100.00